Pagrindinis puslapis
METAR-TAF:

METAR-TAF

Oro uostai :

Port Saidas, Egiptas

platuma: 31-16N, ilguma: 032-18E, Aukštis: 6 m

Dabartinis oras

Ataskaita buvo paskelbta 36 minutes, ne 07:00 UTC
Vėjas 10 kt iš Vakarų/Šiaurės Vakarų
Temperatūra 19°C
Drėgmė 64%
Slėgis 1020 hPa
Matomumas 10 km arba daugiau
Išsisklaidę debesys ne aukštis 2500 ft

METAR: HEPS 020700Z 30010KT 9999 SCT025 19/12 Q1020 NOSIG

Laikas: 09:36 (07:36 UTC)

Prognozė

Ataskaita buvo paskelbta 2 valandos ir 36 minutes, ne 05:00 UTC
Prognozė galioja nuo 02 metu 06 UTC su 03 metu 12 UTC
Vėjas 7 kt iš Šiaurės Vakarų
Matomumas 10 km arba daugiau
Išsisklaidę debesys ne aukštis 2500 ft
Tapsmas
nuo 02 metu 16 UTC su 02 metu 18 UTC
Vėjas 8 kt iš Šiaurės/Šiaurės Rytų

TAF: HEPS 020500Z 0206/0312 32007KT 9999 SCT025 BECMG 0216/0218 02008KT

Orai ataskaitas ir orų prognozės (METAR, TAF).

turimą stotys yra geltonos ir raudonos taškus žemėlapyje.

Perkelti pele per norėdami pamatyti stoties vardą.

Tada spustelėkite, norėdami matyti oro stebėjimo ir prognozės.

Norėdami pakeisti žemėlapį: spustelėkite ant žalios mygtukų su juodo kryžiaus žemyn,; žalią mygtuką su brūkšneliu, jei norite nutolinti; arba žalių rodyklių gretimoms žemėlapius.


METAR-TAF: